Time;durP1;ratioP1;P1;durP2;ratioP2;P2;SDS_P1;SDS_P2;PMS_P1;PMS_P2;Temp;Humidity;BMP_temperature;BMP_pressure;BME280_temperature;BME280_humidity;BME280_pressure;Samples;Min_cycle;Max_cycle;Signal;HPM_P1;HPM_P2
2021/09/01 00:02:00;;;;;;;9.43;6.63;;;17.80;99.90;;;;;;5067921;28;20197;-73
2021/09/01 00:04:27;;;;;;;8.73;5.93;;;17.80;99.90;;;;;;5069220;28;20224;-73
2021/09/01 00:06:54;;;;;;;6.43;4.32;;;17.80;99.90;;;;;;5063909;28;20232;-73
2021/09/01 00:09:21;;;;;;;4.35;3.95;;;17.80;99.90;;;;;;5068768;28;20212;-73
2021/09/01 00:11:48;;;;;;;6.35;3.70;;;17.70;99.90;;;;;;5067584;28;20608;-73
2021/09/01 00:14:15;;;;;;;5.85;3.38;;;17.70;99.90;;;;;;5064444;28;20244;-73
2021/09/01 00:16:42;;;;;;;6.38;4.60;;;17.70;99.90;;;;;;5070353;28;20200;-73
2021/09/01 00:19:12;;;;;;;12.18;6.35;;;17.70;99.90;;;;;;5069085;28;20208;-71
2021/09/01 00:21:39;;;;;;;14.73;8.80;;;17.70;99.90;;;;;;5062100;28;20216;-71
2021/09/01 00:24:06;;;;;;;13.25;6.90;;;17.70;99.90;;;;;;5049168;28;20205;-72
2021/09/01 00:26:34;;;;;;;12.32;4.40;;;17.60;99.90;;;;;;5066583;28;20290;-71
2021/09/01 00:29:01;;;;;;;5.70;3.50;;;17.60;99.90;;;;;;5067703;28;20232;-72
2021/09/01 00:31:29;;;;;;;5.70;3.80;;;17.60;99.90;;;;;;5067766;28;20219;-71
2021/09/01 00:33:56;;;;;;;12.27;4.65;;;17.60;99.90;;;;;;5062157;28;20689;-72
2021/09/01 00:36:24;;;;;;;8.63;4.60;;;17.60;99.90;;;;;;5064139;28;20200;-72
2021/09/01 00:38:51;;;;;;;9.05;5.70;;;17.60;99.90;;;;;;5066845;28;20666;-72
2021/09/01 00:41:19;;;;;;;9.35;6.90;;;17.60;99.90;;;;;;5067107;28;20196;-71
2021/09/01 00:43:46;;;;;;;18.25;7.30;;;17.60;99.90;;;;;;5066047;28;20322;-71
2021/09/01 00:46:13;;;;;;;14.77;6.25;;;17.60;99.90;;;;;;5073706;28;20739;-73
2021/09/01 00:48:40;;;;;;;7.53;4.03;;;17.60;99.90;;;;;;5067663;28;20680;-71
2021/09/01 00:51:07;;;;;;;6.30;3.67;;;17.60;99.90;;;;;;5068362;28;20192;-71
2021/09/01 00:53:38;;;;;;;8.17;4.07;;;17.60;99.90;;;;;;5068000;28;20216;-73
2021/09/01 00:56:06;;;;;;;9.23;3.78;;;17.50;99.90;;;;;;5067570;28;20240;-73
2021/09/01 00:58:37;;;;;;;5.87;3.57;;;17.60;99.90;;;;;;5065196;28;20268;-71
2021/09/01 01:01:15;;;;;;;6.43;3.08;;;17.50;99.90;;;;;;5064522;28;20210;-71
2021/09/01 01:03:43;;;;;;;6.32;3.72;;;17.60;99.90;;;;;;5060894;28;20286;-72
2021/09/01 01:06:10;;;;;;;11.47;6.83;;;17.60;99.90;;;;;;5068399;28;20244;-72
2021/09/01 01:08:38;;;;;;;10.37;5.23;;;17.50;99.90;;;;;;5061565;28;20193;-72
2021/09/01 01:11:12;;;;;;;5.22;3.92;;;17.60;99.90;;;;;;5053180;28;20199;-72
2021/09/01 01:13:39;;;;;;;5.55;3.33;;;17.60;99.90;;;;;;5066031;28;20232;-72
2021/09/01 01:16:07;;;;;;;4.93;2.90;;;17.60;99.90;;;;;;5066258;28;20201;-72
2021/09/01 01:18:34;;;;;;;5.27;3.10;;;17.60;99.90;;;;;;5069310;28;20368;-72
2021/09/01 01:21:01;;;;;;;8.63;3.50;;;17.50;99.90;;;;;;5056825;28;20197;-72
2021/09/01 01:23:27;;;;;;;9.35;3.10;;;17.60;99.90;;;;;;5060395;28;20217;-72
2021/09/01 01:25:56;;;;;;;5.27;2.90;;;17.70;99.90;;;;;;5061279;28;20216;-72
2021/09/01 01:28:23;;;;;;;6.90;3.20;;;17.60;99.90;;;;;;5055272;28;20197;-73
2021/09/01 01:30:50;;;;;;;3.63;2.72;;;17.60;99.90;;;;;;5065347;28;20224;-72
2021/09/01 01:33:17;;;;;;;3.90;2.72;;;17.60;99.90;;;;;;5067174;28;20205;-72
2021/09/01 01:35:46;;;;;;;8.32;3.40;;;17.60;99.90;;;;;;5063958;28;20216;-72
2021/09/01 01:38:14;;;;;;;6.57;3.40;;;17.60;99.90;;;;;;5067844;28;20672;-72
2021/09/01 01:40:42;;;;;;;5.22;3.15;;;17.60;99.90;;;;;;5066792;28;20559;-72
2021/09/01 01:43:11;;;;;;;8.32;4.65;;;17.60;99.90;;;;;;5067408;28;20224;-72
2021/09/01 01:45:40;;;;;;;9.13;4.80;;;17.50;99.90;;;;;;5063586;28;20279;-72
2021/09/01 01:48:09;;;;;;;4.95;3.47;;;17.50;99.90;;;;;;5062390;28;20211;-72
2021/09/01 01:50:37;;;;;;;5.88;2.88;;;17.50;99.90;;;;;;5063260;28;20193;-73
2021/09/01 01:53:05;;;;;;;3.55;2.95;;;17.40;99.90;;;;;;5066936;28;20293;-72
2021/09/01 01:55:32;;;;;;;5.93;3.20;;;17.40;99.90;;;;;;5051572;28;20607;-72
2021/09/01 01:57:59;;;;;;;6.18;2.92;;;17.60;99.90;;;;;;5068182;28;20212;-72
2021/09/01 02:00:27;;;;;;;3.50;2.38;;;17.40;99.90;;;;;;5066284;28;20664;-72
2021/09/01 02:02:54;;;;;;;4.57;3.03;;;17.40;99.90;;;;;;5058622;28;20211;-72
2021/09/01 02:05:21;;;;;;;4.85;2.92;;;17.40;99.90;;;;;;5059717;28;20628;-72
2021/09/01 02:07:48;;;;;;;8.48;3.78;;;17.40;99.90;;;;;;5067435;28;20220;-72
2021/09/01 02:10:15;;;;;;;8.55;5.40;;;17.40;99.90;;;;;;5065896;28;20644;-73
2021/09/01 02:12:42;;;;;;;7.53;3.70;;;17.40;99.90;;;;;;5057863;28;20336;-71
2021/09/01 02:15:11;;;;;;;6.13;3.30;;;17.40;99.90;;;;;;5061222;28;20205;-73
2021/09/01 02:17:41;;;;;;;4.47;2.78;;;17.30;99.90;;;;;;5066387;28;20227;-72
2021/09/01 02:20:09;;;;;;;4.43;2.40;;;17.30;99.90;;;;;;5067473;28;20215;-71
2021/09/01 02:22:37;;;;;;;5.18;2.72;;;17.30;99.90;;;;;;5066384;28;20832;-72
2021/09/01 02:25:05;;;;;;;6.70;3.30;;;17.30;99.90;;;;;;5054757;28;20200;-73
2021/09/01 02:27:32;;;;;;;4.65;3.00;;;17.30;99.90;;;;;;5066971;28;20695;-71
2021/09/01 02:29:59;;;;;;;8.93;3.10;;;17.30;99.90;;;;;;5061485;28;20603;-71
2021/09/01 02:32:26;;;;;;;7.47;2.80;;;17.30;99.90;;;;;;5062970;28;20200;-71
2021/09/01 02:34:54;;;;;;;5.05;2.78;;;17.30;99.90;;;;;;5063762;28;20199;-71
2021/09/01 02:37:21;;;;;;;5.25;2.85;;;17.30;99.90;;;;;;5067450;28;20716;-72
2021/09/01 02:39:48;;;;;;;6.10;2.50;;;17.30;99.90;;;;;;5065617;28;20207;-72
2021/09/01 02:42:15;;;;;;;6.15;3.33;;;17.30;99.90;;;;;;5066854;28;20200;-72
2021/09/01 02:44:42;;;;;;;5.80;2.63;;;17.30;99.90;;;;;;5067102;28;20202;-71
2021/09/01 02:47:09;;;;;;;4.85;2.72;;;17.30;99.90;;;;;;5067279;28;20213;-73
2021/09/01 02:49:36;;;;;;;5.53;2.42;;;17.30;99.90;;;;;;5065028;28;20279;-72
2021/09/01 02:52:05;;;;;;;4.38;2.70;;;17.30;99.90;;;;;;5062422;28;20234;-72
2021/09/01 02:54:32;;;;;;;5.18;2.63;;;17.30;99.90;;;;;;5065721;28;20269;-72
2021/09/01 02:56:59;;;;;;;2.55;2.35;;;17.30;99.90;;;;;;5061852;28;20214;-72
2021/09/01 02:59:26;;;;;;;6.32;3.05;;;17.30;99.90;;;;;;5064923;28;20213;-72
2021/09/01 03:01:53;;;;;;;8.30;4.47;;;17.30;99.90;;;;;;5065943;28;20200;-72
2021/09/01 03:04:20;;;;;;;10.63;4.28;;;17.30;99.90;;;;;;5068799;28;20298;-72
2021/09/01 03:06:47;;;;;;;5.60;3.40;;;17.30;99.90;;;;;;5069783;28;20236;-72
2021/09/01 03:09:15;;;;;;;3.67;2.72;;;17.30;99.90;;;;;;5065484;28;20680;-72
2021/09/01 03:11:42;;;;;;;5.70;3.37;;;17.30;99.90;;;;;;5070470;28;20200;-72
2021/09/01 03:14:10;;;;;;;3.65;2.17;;;17.20;99.90;;;;;;5069793;28;20246;-71
2021/09/01 03:16:37;;;;;;;2.37;2.17;;;17.20;99.90;;;;;;5071214;28;20193;-72
2021/09/01 03:19:04;;;;;;;3.92;2.60;;;17.20;99.90;;;;;;5070837;28;20283;-72
2021/09/01 03:21:31;;;;;;;5.47;2.33;;;17.40;99.90;;;;;;5070876;28;20200;-72
2021/09/01 03:23:58;;;;;;;3.53;2.30;;;17.20;99.90;;;;;;5056972;28;20216;-72
2021/09/01 03:26:28;;;;;;;3.40;2.20;;;17.20;99.90;;;;;;5068923;28;20197;-72
2021/09/01 03:28:56;;;;;;;5.00;2.65;;;16.80;99.90;;;;;;5070619;28;20196;-72
2021/09/01 03:31:23;;;;;;;3.30;2.80;;;17.10;99.90;;;;;;5070900;28;20197;-72
2021/09/01 03:33:50;;;;;;;5.80;2.67;;;17.10;99.90;;;;;;5065629;28;20208;-72
2021/09/01 03:36:17;;;;;;;5.70;2.58;;;17.30;99.90;;;;;;5068845;28;20743;-72
2021/09/01 03:38:44;;;;;;;4.28;2.13;;;17.10;99.90;;;;;;5069046;28;20205;-72
2021/09/01 03:41:11;;;;;;;3.08;2.20;;;17.10;99.90;;;;;;5069154;28;20200;-72
2021/09/01 03:43:39;;;;;;;2.47;2.10;;;17.10;99.90;;;;;;5070820;28;20218;-72
2021/09/01 03:46:06;;;;;;;4.28;2.15;;;17.10;99.90;;;;;;5068896;28;20323;-72
2021/09/01 03:48:34;;;;;;;3.90;2.70;;;17.10;99.90;;;;;;5069355;28;20589;-72
2021/09/01 03:51:01;;;;;;;3.93;2.07;;;17.00;99.90;;;;;;5070093;28;20625;-71
2021/09/01 03:53:28;;;;;;;7.53;2.80;;;17.00;99.90;;;;;;5069526;28;20200;-72
2021/09/01 03:55:55;;;;;;;2.55;2.20;;;17.10;99.90;;;;;;5066171;28;20476;-72
2021/09/01 03:58:22;;;;;;;2.40;1.92;;;17.00;99.90;;;;;;5081340;28;20278;-72
2021/09/01 04:00:51;;;;;;;3.07;2.17;;;17.00;99.90;;;;;;5062907;28;20192;-71
2021/09/01 04:03:18;;;;;;;2.77;2.07;;;17.00;99.90;;;;;;5059028;28;20211;-73
2021/09/01 04:05:45;;;;;;;3.20;2.27;;;17.00;99.90;;;;;;5069443;28;20196;-72
2021/09/01 04:08:11;;;;;;;3.93;2.20;;;17.00;99.90;;;;;;5061392;28;20582;-72
2021/09/01 04:10:38;;;;;;;3.03;2.30;;;17.00;99.90;;;;;;5067655;28;20750;-72
2021/09/01 04:13:05;;;;;;;3.50;2.40;;;17.00;99.90;;;;;;5067451;28;20235;-72
2021/09/01 04:15:32;;;;;;;3.43;2.30;;;17.40;99.90;;;;;;5055767;28;20567;-72
2021/09/01 04:18:01;;;;;;;3.20;2.33;;;16.90;99.90;;;;;;5069895;28;20202;-71
2021/09/01 04:20:27;;;;;;;4.93;2.27;;;16.90;99.90;;;;;;5068461;28;20635;-74
2021/09/01 04:22:54;;;;;;;4.72;1.95;;;16.90;99.90;;;;;;5053242;28;20207;-71
2021/09/01 04:25:21;;;;;;;5.43;2.30;;;16.90;99.90;;;;;;5057032;28;20219;-74
2021/09/01 04:27:48;;;;;;;3.87;2.33;;;16.70;99.90;;;;;;5067306;28;20683;-72
2021/09/01 04:30:15;;;;;;;5.97;2.50;;;16.90;99.90;;;;;;5069776;28;20199;-72
2021/09/01 04:32:42;;;;;;;2.50;2.00;;;16.90;99.90;;;;;;5069117;28;20211;-72
2021/09/01 04:35:11;;;;;;;6.50;2.23;;;16.90;99.90;;;;;;5065147;28;20192;-71
2021/09/01 04:37:38;;;;;;;3.40;2.33;;;16.90;99.90;;;;;;5066751;28;20247;-72
2021/09/01 04:40:06;;;;;;;4.10;2.63;;;16.90;99.90;;;;;;5066462;28;20199;-72
2021/09/01 04:42:33;;;;;;;3.43;2.10;;;17.00;99.90;;;;;;5059793;28;20202;-72
2021/09/01 04:45:00;;;;;;;3.23;2.23;;;17.00;99.90;;;;;;5068226;28;20259;-72
2021/09/01 04:47:27;;;;;;;5.17;2.30;;;17.00;99.90;;;;;;5066486;28;20227;-73
2021/09/01 04:49:54;;;;;;;3.37;2.13;;;17.00;99.90;;;;;;5065760;28;20237;-72
2021/09/01 04:52:22;;;;;;;3.33;2.20;;;17.00;99.90;;;;;;5059987;28;20656;-73
2021/09/01 04:54:49;;;;;;;6.50;2.33;;;17.00;99.90;;;;;;5056874;28;20719;-72
2021/09/01 04:57:16;;;;;;;2.13;1.90;;;17.00;99.90;;;;;;5061148;28;20191;-73
2021/09/01 04:59:43;;;;;;;2.30;2.10;;;17.00;99.90;;;;;;5069416;28;20565;-73
2021/09/01 05:02:10;;;;;;;3.37;2.00;;;17.00;99.90;;;;;;5077250;28;20211;-73
2021/09/01 05:04:37;;;;;;;2.33;1.60;;;17.00;99.90;;;;;;5063249;28;20230;-72
2021/09/01 05:07:04;;;;;;;2.37;2.17;;;17.00;99.90;;;;;;5067348;28;20331;-72
2021/09/01 05:09:32;;;;;;;2.30;1.90;;;17.00;99.90;;;;;;5076787;28;20204;-73
2021/09/01 05:11:59;;;;;;;2.97;2.22;;;17.10;99.90;;;;;;5068304;28;20200;-72
2021/09/01 05:14:26;;;;;;;3.03;1.80;;;17.10;99.90;;;;;;5066547;28;20250;-72
2021/09/01 05:16:53;;;;;;;2.10;1.90;;;17.10;99.90;;;;;;5067477;28;20308;-73
2021/09/01 05:19:20;;;;;;;1.90;1.80;;;17.10;99.90;;;;;;5068397;28;20232;-72
2021/09/01 05:21:52;;;;;;;4.50;2.22;;;17.20;99.90;;;;;;5059276;28;20208;-72
2021/09/01 05:24:29;;;;;;;2.00;1.73;;;17.20;99.90;;;;;;5049623;28;20208;-72
2021/09/01 05:27:07;;;;;;;2.50;2.10;;;17.30;99.90;;;;;;5056744;28;20279;-73
2021/09/01 05:29:41;;;;;;;2.47;1.80;;;17.40;99.90;;;;;;5064437;28;20211;-73
2021/09/01 05:32:13;;;;;;;2.17;1.97;;;17.50;99.90;;;;;;5066954;28;20215;-73
2021/09/01 05:34:42;;;;;;;4.05;2.03;;;17.60;99.90;;;;;;5063072;28;20216;-72
2021/09/01 05:37:13;;;;;;;2.60;1.98;;;17.60;99.90;;;;;;5058997;28;20204;-73
2021/09/01 05:39:42;;;;;;;2.85;1.77;;;17.70;99.90;;;;;;5066401;28;20295;-72
2021/09/01 05:42:13;;;;;;;1.95;1.73;;;18.10;99.90;;;;;;5064238;28;20204;-72
2021/09/01 05:44:41;;;;;;;2.55;1.80;;;17.80;99.90;;;;;;5062626;28;20224;-73
2021/09/01 05:47:09;;;;;;;2.35;1.80;;;17.80;99.90;;;;;;5068130;28;20221;-72
2021/09/01 05:49:37;;;;;;;2.72;1.80;;;17.90;99.90;;;;;;5065128;28;20753;-72
2021/09/01 05:52:06;;;;;;;2.40;1.67;;;18.00;99.90;;;;;;5061524;28;20212;-72
2021/09/01 05:54:33;;;;;;;2.67;1.80;;;18.10;99.90;;;;;;5066208;28;20611;-72
2021/09/01 05:57:13;;;;;;;4.95;1.70;;;18.60;99.90;;;;;;5060436;28;20202;-72
2021/09/01 05:59:44;;;;;;;2.47;1.70;;;18.80;99.90;;;;;;5056336;28;20201;-72
2021/09/01 06:02:19;;;;;;;2.65;2.20;;;19.00;99.90;;;;;;5057478;28;20284;-72
2021/09/01 06:04:48;;;;;;;7.40;2.63;;;19.20;99.90;;;;;;5058702;28;20201;-72
2021/09/01 06:07:16;;;;;;;3.13;1.98;;;19.40;99.90;;;;;;5057583;28;20539;-72
2021/09/01 06:09:45;;;;;;;10.18;2.15;;;19.60;99.90;;;;;;5062283;28;20207;-73
2021/09/01 06:12:19;;;;;;;3.83;1.92;;;19.30;99.90;;;;;;5055513;28;20193;-72
2021/09/01 06:14:46;;;;;;;4.95;2.00;;;19.20;99.90;;;;;;5053028;28;20202;-71
2021/09/01 06:17:13;;;;;;;3.65;1.90;;;19.10;99.90;;;;;;5053342;28;20220;-71
2021/09/01 06:19:40;;;;;;;5.32;1.83;;;19.60;99.90;;;;;;5053836;28;20204;-70
2021/09/01 06:22:07;;;;;;;1.98;1.30;;;20.00;99.90;;;;;;5063672;28;20308;-71
2021/09/01 06:24:35;;;;;;;3.72;1.50;;;20.40;99.90;;;;;;5054147;28;20227;-71
2021/09/01 06:27:03;;;;;;;1.70;1.60;;;20.80;99.90;;;;;;5063651;28;20549;-70
2021/09/01 06:29:31;;;;;;;3.47;1.98;;;21.20;99.90;;;;;;5060441;28;20217;-71
2021/09/01 06:31:58;;;;;;;4.72;1.50;;;21.20;99.90;;;;;;5063608;28;20209;-71
2021/09/01 06:34:25;;;;;;;3.20;1.80;;;20.90;99.90;;;;;;5059841;28;20643;-71
2021/09/01 06:36:53;;;;;;;2.53;1.80;;;20.60;99.90;;;;;;5064461;28;20219;-71
2021/09/01 06:39:20;;;;;;;2.45;1.60;;;20.40;99.90;;;;;;5064366;28;20228;-72
2021/09/01 06:41:47;;;;;;;1.60;1.50;;;20.20;99.90;;;;;;5062835;28;20209;-71
2021/09/01 06:44:14;;;;;;;2.05;1.50;;;20.10;99.90;;;;;;5061986;28;20775;-71
2021/09/01 06:46:42;;;;;;;4.05;1.70;;;20.20;99.90;;;;;;5069336;28;20197;-71
2021/09/01 06:49:09;;;;;;;2.60;1.58;;;20.40;99.90;;;;;;5058151;28;20233;-71
2021/09/01 06:51:36;;;;;;;2.67;1.65;;;20.60;99.90;;;;;;5064613;28;20216;-71
2021/09/01 06:54:03;;;;;;;2.30;1.58;;;20.50;99.90;;;;;;5062061;28;20220;-71
2021/09/01 06:56:30;;;;;;;1.83;1.40;;;20.60;99.90;;;;;;5066791;28;20227;-72
2021/09/01 06:58:57;;;;;;;1.38;1.27;;;20.60;99.90;;;;;;5056450;28;20281;-71
2021/09/01 07:01:24;;;;;;;4.65;1.85;;;20.60;99.90;;;;;;5057504;28;20215;-72
2021/09/01 07:03:54;;;;;;;2.05;1.35;;;20.60;99.90;;;;;;5060095;28;21003;-72
2021/09/01 07:06:21;;;;;;;5.38;1.73;;;20.40;99.90;;;;;;5065256;28;20201;-72
2021/09/01 07:08:48;;;;;;;1.48;1.38;;;20.40;99.90;;;;;;5071733;28;20224;-72
2021/09/01 07:11:15;;;;;;;3.63;1.42;;;20.30;99.90;;;;;;5061291;28;20372;-70
2021/09/01 07:13:43;;;;;;;1.77;1.60;;;20.20;99.90;;;;;;5054307;28;20595;-72
2021/09/01 07:16:10;;;;;;;5.53;1.48;;;20.20;99.90;;;;;;5062530;28;20984;-72
2021/09/01 07:18:37;;;;;;;1.80;1.10;;;20.20;99.90;;;;;;5060471;28;20638;-71
2021/09/01 07:21:05;;;;;;;3.25;1.77;;;20.10;99.90;;;;;;5063974;28;20202;-71
2021/09/01 07:23:32;;;;;;;2.83;1.20;;;20.10;99.90;;;;;;5062265;28;20204;-71
2021/09/01 07:25:59;;;;;;;3.53;1.38;;;19.90;99.90;;;;;;5061668;28;20202;-72
2021/09/01 07:28:26;;;;;;;3.40;1.70;;;19.80;99.90;;;;;;5065304;28;20217;-71
2021/09/01 07:30:54;;;;;;;3.47;1.40;;;19.80;99.90;;;;;;5065535;28;20560;-70
2021/09/01 07:33:21;;;;;;;1.70;1.27;;;19.70;99.90;;;;;;5062302;28;20201;-71
2021/09/01 07:35:48;;;;;;;2.33;1.20;;;19.80;99.90;;;;;;5057910;28;20202;-71
2021/09/01 07:38:16;;;;;;;1.17;1.08;;;20.00;99.90;;;;;;5066291;28;20476;-72
2021/09/01 07:40:43;;;;;;;3.53;1.70;;;20.20;99.90;;;;;;5059218;28;20209;-72
2021/09/01 07:43:10;;;;;;;2.13;1.42;;;20.40;99.90;;;;;;5057057;28;20311;-72
2021/09/01 07:45:37;;;;;;;3.17;1.58;;;20.50;99.90;;;;;;5059227;28;20205;-71
2021/09/01 07:48:04;;;;;;;2.08;1.45;;;20.60;99.90;;;;;;5065478;28;20224;-72
2021/09/01 07:50:33;;;;;;;2.60;1.40;;;20.70;99.90;;;;;;5056560;28;20692;-72
2021/09/01 07:53:00;;;;;;;3.00;1.48;;;20.70;99.90;;;;;;5062547;28;20190;-72
2021/09/01 07:55:29;;;;;;;3.47;1.50;;;20.90;99.90;;;;;;5054570;28;20338;-76
2021/09/01 07:57:56;;;;;;;2.47;1.25;;;21.00;99.90;;;;;;5050025;28;20198;-76
2021/09/01 08:00:23;;;;;;;4.07;1.30;;;21.00;99.90;;;;;;5058291;28;20646;-76
2021/09/01 08:02:53;;;;;;;1.50;1.40;;;20.90;99.90;;;;;;5052860;28;20436;-78
2021/09/01 08:05:20;;;;;;;2.90;1.42;;;20.80;99.90;;;;;;5058493;28;20303;-75
2021/09/01 08:07:48;;;;;;;3.22;1.42;;;20.60;99.90;;;;;;5049836;28;20586;-74
2021/09/01 08:10:15;;;;;;;1.65;1.27;;;20.50;99.90;;;;;;5060018;28;20204;-74
2021/09/01 08:12:44;;;;;;;1.50;1.30;;;20.40;99.90;;;;;;5057214;28;20247;-76
2021/09/01 08:15:12;;;;;;;1.85;1.30;;;20.40;99.90;;;;;;5063331;28;20209;-75
2021/09/01 08:17:40;;;;;;;2.83;1.25;;;20.40;99.90;;;;;;5059152;28;20694;-76
2021/09/01 08:20:08;;;;;;;3.22;1.13;;;20.50;99.90;;;;;;5071628;28;20523;-76
2021/09/01 08:22:38;;;;;;;2.95;1.10;;;20.60;99.90;;;;;;5061592;28;20197;-76
2021/09/01 08:25:06;;;;;;;1.00;1.00;;;20.60;99.90;;;;;;5065881;28;20203;-77
2021/09/01 08:27:33;;;;;;;1.48;1.13;;;20.70;99.90;;;;;;5058841;28;20427;-80
2021/09/01 08:30:02;;;;;;;1.38;1.23;;;20.90;99.90;;;;;;5057893;28;20217;-77
2021/09/01 08:32:29;;;;;;;2.40;1.33;;;21.10;99.90;;;;;;5059327;28;20884;-74
2021/09/01 08:34:56;;;;;;;4.10;1.00;;;21.20;99.90;;;;;;5060983;28;20254;-77
2021/09/01 08:37:23;;;;;;;2.63;1.13;;;21.60;99.90;;;;;;5057867;28;20425;-77
2021/09/01 08:39:50;;;;;;;2.83;1.27;;;22.00;99.90;;;;;;5051144;28;20198;-76
2021/09/01 08:42:19;;;;;;;1.45;1.02;;;22.70;99.90;;;;;;5062637;28;20242;-77
2021/09/01 08:44:46;;;;;;;1.10;0.95;;;23.70;98.60;;;;;;5054530;28;20282;-79
2021/09/01 08:47:17;;;;;;;1.00;0.90;;;24.00;96.50;;;;;;5054717;28;20238;-77
2021/09/01 08:49:46;;;;;;;1.25;1.10;;;24.00;96.10;;;;;;5057110;28;20225;-80
2021/09/01 08:52:13;;;;;;;1.42;1.00;;;23.70;95.40;;;;;;5053159;28;20209;-76
2021/09/01 08:54:40;;;;;;;1.00;1.00;;;23.20;95.50;;;;;;5064754;28;20360;-80
2021/09/01 08:57:07;;;;;;;2.28;0.93;;;23.20;96.00;;;;;;5049536;28;20650;-80
2021/09/01 08:59:34;;;;;;;1.92;1.40;;;24.60;95.80;;;;;;5052184;28;20662;-76
2021/09/01 09:02:01;;;;;;;1.38;1.10;;;26.00;92.50;;;;;;5055165;28;20426;-78
2021/09/01 09:04:33;;;;;;;2.33;1.40;;;27.00;88.80;;;;;;5055689;28;20430;-78
2021/09/01 09:07:02;;;;;;;2.55;1.10;;;28.20;83.60;;;;;;5056888;28;20225;-79
2021/09/01 09:09:31;;;;;;;1.02;1.00;;;29.40;76.10;;;;;;5047735;28;20705;-77
2021/09/01 09:12:00;;;;;;;1.30;1.08;;;30.20;70.00;;;;;;5053546;28;20197;-80
2021/09/01 09:14:29;;;;;;;1.25;1.15;;;31.00;66.60;;;;;;5053629;28;20701;-80
2021/09/01 09:17:15;;;;;;;1.38;1.27;;;31.70;61.60;;;;;;5055722;28;20194;-78
2021/09/01 09:19:55;;;;;;;2.67;1.13;;;32.20;59.80;;;;;;5047628;28;20684;-79
2021/09/01 09:22:25;;;;;;;2.80;1.77;;;32.50;57.80;;;;;;5057394;28;20551;-82
2021/09/01 09:25:10;;;;;;;2.20;1.45;;;31.90;56.40;;;;;;5062352;28;20715;-78
2021/09/01 09:27:43;;;;;;;1.35;1.25;;;31.20;58.50;;;;;;5054221;28;20439;-80
2021/09/01 09:30:32;;;;;;;3.83;1.23;;;30.80;58.60;;;;;;5059953;28;20240;-77
2021/09/01 09:33:00;;;;;;;2.25;1.10;;;30.10;57.90;;;;;;5054373;28;20229;-82
2021/09/01 09:35:46;;;;;;;1.33;1.23;;;29.60;57.60;;;;;;5060754;28;20205;-74
2021/09/01 09:38:14;;;;;;;0.90;0.90;;;29.80;57.70;;;;;;5054546;28;20662;-73
2021/09/01 09:40:41;;;;;;;1.70;1.60;;;30.40;57.50;;;;;;5062163;28;20202;-73
2021/09/01 09:43:16;;;;;;;2.88;1.73;;;31.20;56.40;;;;;;5056951;28;20190;-72
2021/09/01 09:45:43;;;;;;;2.70;1.75;;;31.50;55.10;;;;;;5060505;28;20197;-71
2021/09/01 09:48:10;;;;;;;2.88;1.40;;;30.40;54.70;;;;;;5059238;28;20709;-71
2021/09/01 09:50:46;;;;;;;2.63;1.42;;;29.30;57.00;;;;;;5060488;28;20203;-70
2021/09/01 09:53:13;;;;;;;2.47;1.33;;;28.40;58.60;;;;;;5063529;28;20201;-72
2021/09/01 09:55:40;;;;;;;4.20;1.42;;;27.70;60.00;;;;;;5063162;28;20673;-71
2021/09/01 09:58:08;;;;;;;1.30;1.20;;;27.10;61.40;;;;;;5059320;28;21020;-71
2021/09/01 10:00:35;;;;;;;2.03;1.30;;;26.70;63.00;;;;;;5075266;28;20447;-71
2021/09/01 10:03:04;;;;;;;1.13;1.13;;;26.30;64.50;;;;;;5042259;28;20483;-72
2021/09/01 10:05:31;;;;;;;1.20;1.00;;;26.10;65.50;;;;;;5059396;28;20657;-67
2021/09/01 10:08:02;;;;;;;2.55;1.30;;;25.90;66.70;;;;;;5057883;28;20201;-68
2021/09/01 10:10:29;;;;;;;1.38;1.00;;;25.80;66.90;;;;;;5065050;28;20228;-68
2021/09/01 10:12:56;;;;;;;2.30;1.00;;;25.60;66.60;;;;;;5054436;28;20801;-68
2021/09/01 10:15:28;;;;;;;1.10;1.10;;;25.40;67.60;;;;;;5061160;28;20577;-67
2021/09/01 10:18:01;;;;;;;1.75;1.45;;;25.30;67.30;;;;;;5052233;28;20284;-68
2021/09/01 10:20:29;;;;;;;1.25;1.20;;;25.10;67.10;;;;;;5051020;28;20681;-67
2021/09/01 10:23:03;;;;;;;1.00;1.00;;;25.00;67.70;;;;;;5057867;28;20438;-68
2021/09/01 10:25:35;;;;;;;1.00;1.00;;;25.00;68.40;;;;;;5056012;28;20265;-67
2021/09/01 10:28:32;;;;;;;1.80;1.00;;;25.10;69.10;;;;;;5064337;28;20201;-67
2021/09/01 10:31:25;;;;;;;2.35;1.20;;;25.10;69.00;;;;;;5064632;28;20448;-67
2021/09/01 10:33:53;;;;;;;4.03;1.55;;;25.10;69.80;;;;;;5050143;28;20198;-67
2021/09/01 10:36:47;;;;;;;2.85;1.30;;;25.10;70.00;;;;;;5067148;28;20200;-67
2021/09/01 10:39:37;;;;;;;1.00;1.00;;;25.20;70.40;;;;;;5060501;28;20515;-68
2021/09/01 10:42:46;;;;;;;1.42;1.33;;;25.30;70.70;;;;;;5052389;28;20197;-67
2021/09/01 10:45:18;;;;;;;2.05;1.33;;;25.30;70.90;;;;;;5064365;28;20205;-67
2021/09/01 10:48:07;;;;;;;1.38;1.30;;;25.20;70.20;;;;;;5062642;28;20297;-67
2021/09/01 10:50:37;;;;;;;1.83;1.40;;;25.00;70.20;;;;;;5052523;28;20357;-67
2021/09/01 10:53:09;;;;;;;1.33;1.20;;;24.80;70.70;;;;;;5062933;28;20223;-68
2021/09/01 10:55:51;;;;;;;1.40;1.30;;;24.70;70.50;;;;;;5058607;28;20304;-68
2021/09/01 10:58:24;;;;;;;1.83;1.42;;;24.50;70.60;;;;;;5062130;28;20205;-67
2021/09/01 11:00:56;;;;;;;1.05;1.05;;;24.30;70.90;;;;;;5057087;28;20649;-68
2021/09/01 11:03:34;;;;;;;1.30;1.20;;;24.30;70.60;;;;;;5057855;28;20296;-68
2021/09/01 11:06:12;;;;;;;1.02;1.00;;;24.20;70.80;;;;;;5060272;28;20722;-68
2021/09/01 11:08:52;;;;;;;2.60;1.30;;;24.20;71.60;;;;;;5058519;28;20948;-68
2021/09/01 11:11:20;;;;;;;2.30;1.60;;;24.30;71.70;;;;;;5059093;28;20542;-67
2021/09/01 11:13:47;;;;;;;4.50;1.77;;;24.30;71.20;;;;;;5058557;28;20225;-68
2021/09/01 11:16:19;;;;;;;1.90;1.80;;;24.30;71.70;;;;;;5062407;28;20206;-67
2021/09/01 11:19:05;;;;;;;6.45;2.25;;;24.30;72.60;;;;;;5067827;28;20211;-67
2021/09/01 11:21:33;;;;;;;3.50;1.92;;;24.30;73.40;;;;;;5061425;28;20208;-68
2021/09/01 11:24:01;;;;;;;3.85;1.85;;;24.20;73.10;;;;;;5063934;28;20201;-67
2021/09/01 11:26:34;;;;;;;1.73;1.63;;;24.20;73.10;;;;;;5059235;28;20455;-67
2021/09/01 11:29:04;;;;;;;5.07;1.73;;;24.50;73.60;;;;;;5063113;28;20224;-67
2021/09/01 11:31:32;;;;;;;2.10;1.60;;;24.90;73.10;;;;;;5056885;28;20220;-67
2021/09/01 11:34:00;;;;;;;1.90;1.65;;;25.40;72.20;;;;;;5063519;28;20254;-67
2021/09/01 11:36:29;;;;;;;2.95;2.20;;;25.80;70.90;;;;;;5060937;28;20207;-67
2021/09/01 11:38:58;;;;;;;6.97;2.13;;;26.00;70.40;;;;;;5062367;28;20679;-68
2021/09/01 11:41:26;;;;;;;2.40;2.10;;;26.10;70.20;;;;;;5054010;28;20633;-68
2021/09/01 11:43:59;;;;;;;2.15;1.95;;;26.20;70.10;;;;;;5062130;28;20565;-67
2021/09/01 11:46:31;;;;;;;3.67;2.33;;;26.40;70.20;;;;;;5065329;28;20543;-70
2021/09/01 11:49:04;;;;;;;4.07;2.10;;;26.40;70.10;;;;;;5057971;28;20507;-70
2021/09/01 11:51:32;;;;;;;2.38;2.17;;;25.80;71.40;;;;;;5059798;28;20441;-71
2021/09/01 11:54:00;;;;;;;2.55;2.13;;;25.30;72.80;;;;;;5047287;28;20443;-70
2021/09/01 11:56:28;;;;;;;2.83;2.13;;;25.00;74.40;;;;;;5064796;28;20205;-70
2021/09/01 11:59:01;;;;;;;7.03;2.85;;;24.70;75.60;;;;;;5061163;28;20242;-70
2021/09/01 12:01:29;;;;;;;2.75;2.38;;;24.30;76.40;;;;;;5064416;28;20295;-70
2021/09/01 12:03:57;;;;;;;7.85;2.50;;;24.00;78.10;;;;;;5056928;28;20562;-71
2021/09/01 12:06:36;;;;;;;6.53;2.30;;;23.80;78.50;;;;;;5060236;28;21215;-70
2021/09/01 12:09:04;;;;;;;2.15;1.85;;;23.60;79.30;;;;;;5061742;28;20220;-70
2021/09/01 12:11:32;;;;;;;7.03;2.75;;;23.50;79.80;;;;;;5060864;28;20724;-70
2021/09/01 12:14:06;;;;;;;6.05;2.42;;;23.40;81.40;;;;;;5062825;28;20229;-69
2021/09/01 12:16:34;;;;;;;5.43;2.50;;;23.20;82.40;;;;;;5064994;28;20440;-70
2021/09/01 12:19:08;;;;;;;2.20;2.10;;;23.10;83.30;;;;;;5062804;28;20204;-70
2021/09/01 12:21:52;;;;;;;4.03;2.33;;;23.00;84.60;;;;;;5061532;28;20234;-70
2021/09/01 12:24:24;;;;;;;3.45;2.30;;;22.90;83.80;;;;;;5059203;28;20518;-70
2021/09/01 12:27:07;;;;;;;2.63;2.42;;;22.90;84.50;;;;;;5061992;28;20458;-70
2021/09/01 12:29:37;;;;;;;3.05;2.53;;;22.80;85.00;;;;;;5064098;28;20272;-69
2021/09/01 12:32:07;;;;;;;4.72;2.50;;;22.70;85.50;;;;;;5063848;28;20205;-69
2021/09/01 12:34:37;;;;;;;2.85;2.33;;;22.70;85.30;;;;;;5057901;28;20225;-70
2021/09/01 12:37:09;;;;;;;4.43;2.10;;;22.60;85.10;;;;;;5062351;28;20232;-69
2021/09/01 12:39:44;;;;;;;3.63;2.25;;;22.60;84.80;;;;;;5063239;28;20205;-70
2021/09/01 12:42:32;;;;;;;2.63;2.10;;;22.60;83.60;;;;;;5056258;28;20336;-70
2021/09/01 12:45:04;;;;;;;3.05;2.20;;;22.60;82.80;;;;;;5063851;28;20204;-70
2021/09/01 12:47:32;;;;;;;2.83;2.13;;;22.60;79.00;;;;;;5061928;28;20562;-70
2021/09/01 12:50:00;;;;;;;3.17;2.00;;;22.40;77.60;;;;;;5069398;28;20308;-71
2021/09/01 12:52:28;;;;;;;2.83;1.90;;;22.40;77.60;;;;;;5058560;28;20197;-70
2021/09/01 12:54:58;;;;;;;2.10;1.90;;;22.40;77.60;;;;;;5060073;28;20193;-70
2021/09/01 12:57:25;;;;;;;2.42;1.75;;;22.40;77.70;;;;;;5045662;28;20458;-69